Milwaukee, Wisconsin
Traffic Map
Current Weather Conditions
Milwaukee, Wisconsin
Overcast
Overcast

Feels Like: 1°
Wind Chill: Ceiling: 12000
Heat Index: Visibility: 10mi
Dew Point: -7° Wind: 7mph
Humidity: 45% Direction: 50° (NE)
Pressure: 30.13in Gusts: 0mph
Raw Report DataKMKE 240052Z 05006KT 10SM BKN120 OVC150 04/M07 A3013 RMK AO2 SLP209 T00391072
Traffic Incident Summary
Active as of:
Severity:
Category:
InformationThere was an issue retrieving the traffic information for this location. Please try a different location or try again shortly.
Advertisements
At Last! Intellicast now available for iPhone and Android